sensor_id;sensor_type;location;lat;lon;timestamp;P1;durP1;ratioP1;P2;durP2;ratioP2
82560;SDS011;72228;51.208;10.468;2023-08-20T00:01:18;4.38;;;2.90;;
82560;SDS011;72228;51.208;10.468;2023-08-20T00:03:47;3.67;;;2.97;;
82560;SDS011;72228;51.208;10.468;2023-08-20T00:06:14;4.53;;;3.40;;
82560;SDS011;72228;51.208;10.468;2023-08-20T00:08:39;3.17;;;2.83;;
82560;SDS011;72228;51.208;10.468;2023-08-20T00:11:05;4.80;;;3.75;;
82560;SDS011;72228;51.208;10.468;2023-08-20T00:13:30;4.82;;;3.50;;
82560;SDS011;72228;51.208;10.468;2023-08-20T00:15:56;4.00;;;3.17;;
82560;SDS011;72228;51.208;10.468;2023-08-20T00:18:22;4.88;;;3.97;;
82560;SDS011;72228;51.208;10.468;2023-08-20T00:20:47;4.22;;;3.50;;
82560;SDS011;72228;51.208;10.468;2023-08-20T00:23:13;4.22;;;3.17;;
82560;SDS011;72228;51.208;10.468;2023-08-20T00:25:39;4.57;;;3.53;;
82560;SDS011;72228;51.208;10.468;2023-08-20T00:28:05;4.05;;;3.30;;
82560;SDS011;72228;51.208;10.468;2023-08-20T00:30:31;4.00;;;3.28;;
82560;SDS011;72228;51.208;10.468;2023-08-20T00:32:56;4.25;;;3.50;;
82560;SDS011;72228;51.208;10.468;2023-08-20T00:35:21;4.07;;;3.25;;
82560;SDS011;72228;51.208;10.468;2023-08-20T00:37:47;4.25;;;3.53;;
82560;SDS011;72228;51.208;10.468;2023-08-20T00:40:12;5.75;;;3.78;;
82560;SDS011;72228;51.208;10.468;2023-08-20T00:42:38;4.80;;;3.65;;
82560;SDS011;72228;51.208;10.468;2023-08-20T00:45:03;3.83;;;3.33;;
82560;SDS011;72228;51.208;10.468;2023-08-20T00:47:29;3.70;;;3.30;;
82560;SDS011;72228;51.208;10.468;2023-08-20T00:49:55;4.20;;;3.40;;
82560;SDS011;72228;51.208;10.468;2023-08-20T00:52:21;3.72;;;3.30;;
82560;SDS011;72228;51.208;10.468;2023-08-20T00:54:47;4.03;;;3.33;;
82560;SDS011;72228;51.208;10.468;2023-08-20T00:57:13;3.85;;;3.15;;
82560;SDS011;72228;51.208;10.468;2023-08-20T00:59:40;3.90;;;2.92;;
82560;SDS011;72228;51.208;10.468;2023-08-20T01:02:05;3.67;;;3.10;;
82560;SDS011;72228;51.208;10.468;2023-08-20T01:04:31;4.10;;;3.28;;
82560;SDS011;72228;51.208;10.468;2023-08-20T01:12:37;3.97;;;3.13;;
82560;SDS011;72228;51.208;10.468;2023-08-20T01:15:04;4.80;;;3.83;;
82560;SDS011;72228;51.208;10.468;2023-08-20T01:17:29;3.90;;;3.28;;
82560;SDS011;72228;51.208;10.468;2023-08-20T01:19:56;4.40;;;3.17;;
82560;SDS011;72228;51.208;10.468;2023-08-20T01:22:47;4.63;;;3.90;;
82560;SDS011;72228;51.208;10.468;2023-08-20T01:30:48;4.78;;;3.72;;
82560;SDS011;72228;51.208;10.468;2023-08-20T01:33:14;3.95;;;3.15;;
82560;SDS011;72228;51.208;10.468;2023-08-20T01:35:40;4.45;;;3.30;;
82560;SDS011;72228;51.208;10.468;2023-08-20T01:38:05;4.93;;;3.40;;
82560;SDS011;72228;51.208;10.468;2023-08-20T01:40:31;4.75;;;3.42;;
82560;SDS011;72228;51.208;10.468;2023-08-20T01:42:57;5.22;;;3.58;;
82560;SDS011;72228;51.208;10.468;2023-08-20T01:45:22;5.03;;;3.60;;
82560;SDS011;72228;51.208;10.468;2023-08-20T01:47:48;3.50;;;3.10;;
82560;SDS011;72228;51.208;10.468;2023-08-20T01:50:14;4.63;;;3.33;;
82560;SDS011;72228;51.208;10.468;2023-08-20T01:52:39;5.15;;;3.47;;
82560;SDS011;72228;51.208;10.468;2023-08-20T01:55:05;4.18;;;3.67;;
82560;SDS011;72228;51.208;10.468;2023-08-20T01:57:30;3.72;;;3.25;;
82560;SDS011;72228;51.208;10.468;2023-08-20T01:59:57;4.50;;;3.45;;
82560;SDS011;72228;51.208;10.468;2023-08-20T02:02:23;4.30;;;3.30;;
82560;SDS011;72228;51.208;10.468;2023-08-20T02:04:49;3.70;;;3.30;;
82560;SDS011;72228;51.208;10.468;2023-08-20T02:07:14;4.68;;;3.83;;
82560;SDS011;72228;51.208;10.468;2023-08-20T02:09:40;4.95;;;3.40;;
82560;SDS011;72228;51.208;10.468;2023-08-20T02:12:05;4.10;;;3.22;;
82560;SDS011;72228;51.208;10.468;2023-08-20T02:14:31;3.83;;;3.40;;
82560;SDS011;72228;51.208;10.468;2023-08-20T02:16:59;4.47;;;3.55;;
82560;SDS011;72228;51.208;10.468;2023-08-20T02:19:28;4.70;;;3.65;;
82560;SDS011;72228;51.208;10.468;2023-08-20T02:21:54;4.45;;;3.60;;
82560;SDS011;72228;51.208;10.468;2023-08-20T02:24:19;5.07;;;3.83;;
82560;SDS011;72228;51.208;10.468;2023-08-20T02:26:45;4.05;;;3.50;;
82560;SDS011;72228;51.208;10.468;2023-08-20T02:29:10;4.07;;;3.17;;
82560;SDS011;72228;51.208;10.468;2023-08-20T02:31:36;4.13;;;3.30;;
82560;SDS011;72228;51.208;10.468;2023-08-20T02:34:01;4.20;;;3.30;;
82560;SDS011;72228;51.208;10.468;2023-08-20T02:36:27;3.90;;;3.28;;
82560;SDS011;72228;51.208;10.468;2023-08-20T02:38:52;4.40;;;3.97;;
82560;SDS011;72228;51.208;10.468;2023-08-20T02:41:18;4.50;;;3.88;;
82560;SDS011;72228;51.208;10.468;2023-08-20T02:43:43;4.13;;;3.50;;
82560;SDS011;72228;51.208;10.468;2023-08-20T02:46:09;3.92;;;3.35;;
82560;SDS011;72228;51.208;10.468;2023-08-20T02:48:35;3.97;;;3.50;;
82560;SDS011;72228;51.208;10.468;2023-08-20T02:51:00;6.57;;;3.42;;
82560;SDS011;72228;51.208;10.468;2023-08-20T02:53:25;4.15;;;3.20;;
82560;SDS011;72228;51.208;10.468;2023-08-20T02:55:51;4.00;;;3.20;;
82560;SDS011;72228;51.208;10.468;2023-08-20T02:58:16;5.93;;;3.92;;
82560;SDS011;72228;51.208;10.468;2023-08-20T03:00:42;5.60;;;3.65;;
82560;SDS011;72228;51.208;10.468;2023-08-20T03:03:09;23.40;;;11.73;;
82560;SDS011;72228;51.208;10.468;2023-08-20T03:05:35;20.33;;;11.25;;
82560;SDS011;72228;51.208;10.468;2023-08-20T03:08:04;13.45;;;5.88;;
82560;SDS011;72228;51.208;10.468;2023-08-20T03:10:30;12.88;;;6.20;;
82560;SDS011;72228;51.208;10.468;2023-08-20T03:12:57;17.08;;;8.18;;
82560;SDS011;72228;51.208;10.468;2023-08-20T03:15:23;9.60;;;6.03;;
82560;SDS011;72228;51.208;10.468;2023-08-20T03:17:48;9.63;;;5.50;;
82560;SDS011;72228;51.208;10.468;2023-08-20T03:20:16;8.27;;;4.82;;
82560;SDS011;72228;51.208;10.468;2023-08-20T03:22:41;6.85;;;4.95;;
82560;SDS011;72228;51.208;10.468;2023-08-20T03:25:07;14.43;;;7.80;;
82560;SDS011;72228;51.208;10.468;2023-08-20T03:27:33;6.43;;;4.60;;
82560;SDS011;72228;51.208;10.468;2023-08-20T03:29:58;9.35;;;4.85;;
82560;SDS011;72228;51.208;10.468;2023-08-20T03:32:24;21.38;;;12.00;;
82560;SDS011;72228;51.208;10.468;2023-08-20T03:34:50;13.88;;;8.13;;
82560;SDS011;72228;51.208;10.468;2023-08-20T03:37:15;13.25;;;7.30;;
82560;SDS011;72228;51.208;10.468;2023-08-20T03:39:41;13.27;;;7.43;;
82560;SDS011;72228;51.208;10.468;2023-08-20T03:42:06;19.05;;;9.93;;
82560;SDS011;72228;51.208;10.468;2023-08-20T03:44:32;13.38;;;8.38;;
82560;SDS011;72228;51.208;10.468;2023-08-20T03:46:57;16.15;;;9.70;;
82560;SDS011;72228;51.208;10.468;2023-08-20T03:49:23;10.48;;;7.53;;
82560;SDS011;72228;51.208;10.468;2023-08-20T03:51:48;12.43;;;7.68;;
82560;SDS011;72228;51.208;10.468;2023-08-20T03:54:13;11.05;;;8.10;;
82560;SDS011;72228;51.208;10.468;2023-08-20T03:56:39;13.25;;;9.13;;
82560;SDS011;72228;51.208;10.468;2023-08-20T03:59:04;20.70;;;9.45;;
82560;SDS011;72228;51.208;10.468;2023-08-20T04:01:30;21.10;;;10.20;;
82560;SDS011;72228;51.208;10.468;2023-08-20T04:03:55;20.70;;;9.75;;
82560;SDS011;72228;51.208;10.468;2023-08-20T04:06:21;18.50;;;9.23;;
82560;SDS011;72228;51.208;10.468;2023-08-20T04:08:46;17.17;;;9.05;;
82560;SDS011;72228;51.208;10.468;2023-08-20T04:11:11;14.00;;;8.20;;
82560;SDS011;72228;51.208;10.468;2023-08-20T04:13:37;13.73;;;8.85;;
82560;SDS011;72228;51.208;10.468;2023-08-20T04:16:02;13.88;;;8.02;;
82560;SDS011;72228;51.208;10.468;2023-08-20T04:18:28;14.38;;;8.27;;
82560;SDS011;72228;51.208;10.468;2023-08-20T04:20:53;17.65;;;8.85;;
82560;SDS011;72228;51.208;10.468;2023-08-20T04:23:20;19.73;;;11.00;;
82560;SDS011;72228;51.208;10.468;2023-08-20T04:25:46;12.70;;;8.48;;
82560;SDS011;72228;51.208;10.468;2023-08-20T04:28:11;15.57;;;8.57;;
82560;SDS011;72228;51.208;10.468;2023-08-20T04:30:37;14.93;;;8.30;;
82560;SDS011;72228;51.208;10.468;2023-08-20T04:33:03;15.38;;;9.45;;
82560;SDS011;72228;51.208;10.468;2023-08-20T04:35:28;11.93;;;7.82;;
82560;SDS011;72228;51.208;10.468;2023-08-20T04:37:54;16.33;;;9.93;;
82560;SDS011;72228;51.208;10.468;2023-08-20T04:40:22;13.68;;;8.15;;
82560;SDS011;72228;51.208;10.468;2023-08-20T04:42:48;14.10;;;9.18;;
82560;SDS011;72228;51.208;10.468;2023-08-20T04:45:14;10.85;;;8.45;;
82560;SDS011;72228;51.208;10.468;2023-08-20T04:52:33;12.93;;;8.00;;
82560;SDS011;72228;51.208;10.468;2023-08-20T04:54:59;11.30;;;7.78;;
82560;SDS011;72228;51.208;10.468;2023-08-20T04:57:24;13.60;;;7.78;;
82560;SDS011;72228;51.208;10.468;2023-08-20T04:59:50;17.48;;;8.65;;
82560;SDS011;72228;51.208;10.468;2023-08-20T05:02:15;16.60;;;9.05;;
82560;SDS011;72228;51.208;10.468;2023-08-20T05:04:41;11.13;;;8.32;;
82560;SDS011;72228;51.208;10.468;2023-08-20T05:07:06;13.85;;;8.20;;
82560;SDS011;72228;51.208;10.468;2023-08-20T05:09:32;10.65;;;7.47;;
82560;SDS011;72228;51.208;10.468;2023-08-20T05:11:58;12.68;;;8.68;;
82560;SDS011;72228;51.208;10.468;2023-08-20T05:14:24;9.85;;;7.75;;
82560;SDS011;72228;51.208;10.468;2023-08-20T05:16:49;14.68;;;8.30;;
82560;SDS011;72228;51.208;10.468;2023-08-20T05:19:14;14.23;;;9.25;;
82560;SDS011;72228;51.208;10.468;2023-08-20T05:21:40;11.55;;;8.77;;
82560;SDS011;72228;51.208;10.468;2023-08-20T05:24:05;12.73;;;7.72;;
82560;SDS011;72228;51.208;10.468;2023-08-20T05:26:31;15.93;;;10.82;;
82560;SDS011;72228;51.208;10.468;2023-08-20T05:28:56;11.82;;;8.23;;
82560;SDS011;72228;51.208;10.468;2023-08-20T05:31:22;12.77;;;9.27;;
82560;SDS011;72228;51.208;10.468;2023-08-20T05:33:47;12.82;;;8.70;;
82560;SDS011;72228;51.208;10.468;2023-08-20T05:36:13;10.38;;;7.35;;
82560;SDS011;72228;51.208;10.468;2023-08-20T05:38:39;14.32;;;8.95;;
82560;SDS011;72228;51.208;10.468;2023-08-20T05:41:05;11.40;;;8.27;;
82560;SDS011;72228;51.208;10.468;2023-08-20T05:43:30;10.18;;;7.93;;
82560;SDS011;72228;51.208;10.468;2023-08-20T05:45:56;10.68;;;7.95;;
82560;SDS011;72228;51.208;10.468;2023-08-20T05:48:21;11.73;;;7.97;;
82560;SDS011;72228;51.208;10.468;2023-08-20T05:50:46;12.68;;;8.70;;
82560;SDS011;72228;51.208;10.468;2023-08-20T05:53:12;13.98;;;9.00;;
82560;SDS011;72228;51.208;10.468;2023-08-20T05:55:37;10.80;;;7.60;;
82560;SDS011;72228;51.208;10.468;2023-08-20T05:58:03;11.10;;;9.07;;
82560;SDS011;72228;51.208;10.468;2023-08-20T06:00:28;12.10;;;8.45;;
82560;SDS011;72228;51.208;10.468;2023-08-20T06:02:54;11.23;;;7.60;;
82560;SDS011;72228;51.208;10.468;2023-08-20T06:05:19;10.73;;;8.07;;
82560;SDS011;72228;51.208;10.468;2023-08-20T06:07:44;11.25;;;8.20;;
82560;SDS011;72228;51.208;10.468;2023-08-20T06:10:10;10.90;;;7.75;;
82560;SDS011;72228;51.208;10.468;2023-08-20T06:12:36;10.60;;;7.47;;
82560;SDS011;72228;51.208;10.468;2023-08-20T06:15:02;9.10;;;7.13;;
82560;SDS011;72228;51.208;10.468;2023-08-20T06:17:27;12.35;;;8.45;;
82560;SDS011;72228;51.208;10.468;2023-08-20T06:19:53;18.52;;;12.68;;
82560;SDS011;72228;51.208;10.468;2023-08-20T06:22:18;11.25;;;8.27;;
82560;SDS011;72228;51.208;10.468;2023-08-20T06:24:44;16.20;;;9.38;;
82560;SDS011;72228;51.208;10.468;2023-08-20T06:27:10;13.27;;;9.52;;
82560;SDS011;72228;51.208;10.468;2023-08-20T06:29:35;16.20;;;10.85;;
82560;SDS011;72228;51.208;10.468;2023-08-20T06:32:01;13.70;;;10.50;;
82560;SDS011;72228;51.208;10.468;2023-08-20T06:34:27;20.75;;;10.63;;
82560;SDS011;72228;51.208;10.468;2023-08-20T06:36:52;13.60;;;10.93;;
82560;SDS011;72228;51.208;10.468;2023-08-20T06:39:18;14.90;;;9.23;;
82560;SDS011;72228;51.208;10.468;2023-08-20T06:41:45;16.40;;;9.43;;
82560;SDS011;72228;51.208;10.468;2023-08-20T06:44:10;11.65;;;9.63;;
82560;SDS011;72228;51.208;10.468;2023-08-20T06:46:36;13.32;;;9.75;;
82560;SDS011;72228;51.208;10.468;2023-08-20T06:49:02;13.80;;;8.52;;
82560;SDS011;72228;51.208;10.468;2023-08-20T06:51:28;14.82;;;8.75;;
82560;SDS011;72228;51.208;10.468;2023-08-20T06:53:53;16.48;;;9.45;;
82560;SDS011;72228;51.208;10.468;2023-08-20T06:56:20;12.45;;;9.90;;
82560;SDS011;72228;51.208;10.468;2023-08-20T06:58:45;11.80;;;9.05;;
82560;SDS011;72228;51.208;10.468;2023-08-20T07:01:11;16.92;;;10.32;;
82560;SDS011;72228;51.208;10.468;2023-08-20T07:03:38;13.85;;;9.43;;
82560;SDS011;72228;51.208;10.468;2023-08-20T07:06:05;12.07;;;10.07;;
82560;SDS011;72228;51.208;10.468;2023-08-20T07:08:31;13.48;;;10.27;;
82560;SDS011;72228;51.208;10.468;2023-08-20T07:10:57;19.33;;;11.52;;
82560;SDS011;72228;51.208;10.468;2023-08-20T07:13:23;13.68;;;9.52;;
82560;SDS011;72228;51.208;10.468;2023-08-20T07:15:49;18.63;;;10.23;;
82560;SDS011;72228;51.208;10.468;2023-08-20T07:18:14;12.35;;;8.93;;
82560;SDS011;72228;51.208;10.468;2023-08-20T07:20:41;14.20;;;9.52;;
82560;SDS011;72228;51.208;10.468;2023-08-20T07:23:07;13.75;;;9.38;;
82560;SDS011;72228;51.208;10.468;2023-08-20T07:25:33;10.57;;;8.55;;
82560;SDS011;72228;51.208;10.468;2023-08-20T07:28:01;13.75;;;8.90;;
82560;SDS011;72228;51.208;10.468;2023-08-20T07:31:12;11.90;;;9.77;;
82560;SDS011;72228;51.208;10.468;2023-08-20T07:33:38;12.13;;;9.00;;
82560;SDS011;72228;51.208;10.468;2023-08-20T07:36:03;12.43;;;9.55;;
82560;SDS011;72228;51.208;10.468;2023-08-20T07:38:29;10.90;;;9.13;;
82560;SDS011;72228;51.208;10.468;2023-08-20T07:40:54;14.45;;;9.70;;
82560;SDS011;72228;51.208;10.468;2023-08-20T07:43:20;11.00;;;8.77;;
82560;SDS011;72228;51.208;10.468;2023-08-20T07:45:45;12.80;;;9.30;;
82560;SDS011;72228;51.208;10.468;2023-08-20T07:48:10;11.50;;;9.27;;
82560;SDS011;72228;51.208;10.468;2023-08-20T07:50:36;11.98;;;9.05;;
82560;SDS011;72228;51.208;10.468;2023-08-20T07:53:01;15.07;;;8.88;;
82560;SDS011;72228;51.208;10.468;2023-08-20T07:55:27;10.48;;;8.18;;
82560;SDS011;72228;51.208;10.468;2023-08-20T07:57:52;12.27;;;9.35;;
82560;SDS011;72228;51.208;10.468;2023-08-20T08:00:18;12.90;;;8.98;;
82560;SDS011;72228;51.208;10.468;2023-08-20T08:02:43;11.80;;;8.73;;
82560;SDS011;72228;51.208;10.468;2023-08-20T08:05:08;12.60;;;9.15;;
82560;SDS011;72228;51.208;10.468;2023-08-20T08:07:34;14.32;;;9.40;;
82560;SDS011;72228;51.208;10.468;2023-08-20T08:09:59;12.98;;;9.18;;
82560;SDS011;72228;51.208;10.468;2023-08-20T08:12:25;14.38;;;9.00;;
82560;SDS011;72228;51.208;10.468;2023-08-20T08:14:50;14.77;;;7.78;;
82560;SDS011;72228;51.208;10.468;2023-08-20T08:17:15;12.57;;;7.95;;
82560;SDS011;72228;51.208;10.468;2023-08-20T08:19:41;16.95;;;10.02;;
82560;SDS011;72228;51.208;10.468;2023-08-20T08:22:06;13.82;;;10.15;;
82560;SDS011;72228;51.208;10.468;2023-08-20T08:24:32;17.33;;;10.38;;
82560;SDS011;72228;51.208;10.468;2023-08-20T08:26:57;16.88;;;10.70;;
82560;SDS011;72228;51.208;10.468;2023-08-20T08:29:22;17.17;;;10.15;;
82560;SDS011;72228;51.208;10.468;2023-08-20T08:31:48;17.90;;;10.35;;
82560;SDS011;72228;51.208;10.468;2023-08-20T08:34:13;14.43;;;10.10;;
82560;SDS011;72228;51.208;10.468;2023-08-20T08:36:39;15.52;;;10.38;;
82560;SDS011;72228;51.208;10.468;2023-08-20T08:39:05;20.08;;;9.65;;
82560;SDS011;72228;51.208;10.468;2023-08-20T08:41:30;15.85;;;10.90;;
82560;SDS011;72228;51.208;10.468;2023-08-20T08:43:57;19.58;;;11.10;;
82560;SDS011;72228;51.208;10.468;2023-08-20T08:46:23;20.05;;;11.00;;
82560;SDS011;72228;51.208;10.468;2023-08-20T08:48:50;21.95;;;11.05;;
82560;SDS011;72228;51.208;10.468;2023-08-20T08:51:16;15.90;;;11.13;;
82560;SDS011;72228;51.208;10.468;2023-08-20T08:53:42;18.70;;;10.68;;
82560;SDS011;72228;51.208;10.468;2023-08-20T08:56:10;19.88;;;10.48;;
82560;SDS011;72228;51.208;10.468;2023-08-20T08:58:36;18.25;;;10.13;;
82560;SDS011;72228;51.208;10.468;2023-08-20T09:01:01;16.38;;;10.35;;
82560;SDS011;72228;51.208;10.468;2023-08-20T09:03:27;21.42;;;10.10;;
82560;SDS011;72228;51.208;10.468;2023-08-20T09:05:58;16.77;;;10.18;;
82560;SDS011;72228;51.208;10.468;2023-08-20T09:08:31;19.52;;;10.73;;
82560;SDS011;72228;51.208;10.468;2023-08-20T09:10:58;18.42;;;10.57;;
82560;SDS011;72228;51.208;10.468;2023-08-20T09:13:35;18.45;;;10.60;;
82560;SDS011;72228;51.208;10.468;2023-08-20T09:16:02;14.90;;;10.32;;
82560;SDS011;72228;51.208;10.468;2023-08-20T09:18:31;36.80;;;10.77;;
82560;SDS011;72228;51.208;10.468;2023-08-20T09:20:58;16.73;;;10.77;;
82560;SDS011;72228;51.208;10.468;2023-08-20T09:23:26;16.88;;;10.70;;
82560;SDS011;72228;51.208;10.468;2023-08-20T09:25:53;13.57;;;9.85;;
82560;SDS011;72228;51.208;10.468;2023-08-20T09:28:19;16.80;;;9.85;;
82560;SDS011;72228;51.208;10.468;2023-08-20T09:31:00;18.75;;;9.90;;
82560;SDS011;72228;51.208;10.468;2023-08-20T09:33:29;16.13;;;10.00;;
82560;SDS011;72228;51.208;10.468;2023-08-20T09:35:54;20.80;;;10.02;;
82560;SDS011;72228;51.208;10.468;2023-08-20T09:38:20;19.17;;;11.70;;
82560;SDS011;72228;51.208;10.468;2023-08-20T09:40:47;16.38;;;9.85;;
82560;SDS011;72228;51.208;10.468;2023-08-20T09:45:40;18.33;;;10.50;;
82560;SDS011;72228;51.208;10.468;2023-08-20T09:48:08;16.48;;;11.07;;
82560;SDS011;72228;51.208;10.468;2023-08-20T09:50:35;14.48;;;10.77;;
82560;SDS011;72228;51.208;10.468;2023-08-20T09:53:21;15.60;;;11.10;;
82560;SDS011;72228;51.208;10.468;2023-08-20T09:55:52;16.85;;;10.30;;
82560;SDS011;72228;51.208;10.468;2023-08-20T09:58:20;14.13;;;10.30;;
82560;SDS011;72228;51.208;10.468;2023-08-20T10:00:51;16.40;;;10.68;;
82560;SDS011;72228;51.208;10.468;2023-08-20T10:03:17;19.42;;;9.77;;
82560;SDS011;72228;51.208;10.468;2023-08-20T10:05:48;17.13;;;10.02;;
82560;SDS011;72228;51.208;10.468;2023-08-20T10:08:15;13.43;;;9.52;;
82560;SDS011;72228;51.208;10.468;2023-08-20T10:10:41;15.13;;;10.30;;
82560;SDS011;72228;51.208;10.468;2023-08-20T10:13:07;14.73;;;9.60;;
82560;SDS011;72228;51.208;10.468;2023-08-20T10:15:33;13.85;;;10.27;;
82560;SDS011;72228;51.208;10.468;2023-08-20T10:18:01;12.95;;;10.05;;
82560;SDS011;72228;51.208;10.468;2023-08-20T10:20:31;13.32;;;9.48;;
82560;SDS011;72228;51.208;10.468;2023-08-20T10:22:59;14.52;;;10.02;;
82560;SDS011;72228;51.208;10.468;2023-08-20T10:25:27;13.77;;;10.13;;
82560;SDS011;72228;51.208;10.468;2023-08-20T10:27:53;14.18;;;10.00;;
82560;SDS011;72228;51.208;10.468;2023-08-20T10:30:20;14.43;;;10.05;;
82560;SDS011;72228;51.208;10.468;2023-08-20T10:32:54;15.13;;;10.38;;
82560;SDS011;72228;51.208;10.468;2023-08-20T10:35:28;16.23;;;9.93;;
82560;SDS011;72228;51.208;10.468;2023-08-20T10:38:12;12.25;;;9.60;;
82560;SDS011;72228;51.208;10.468;2023-08-20T10:43:27;13.35;;;10.02;;
82560;SDS011;72228;51.208;10.468;2023-08-20T10:48:40;13.90;;;9.52;;
82560;SDS011;72228;51.208;10.468;2023-08-20T10:51:15;12.73;;;9.60;;
82560;SDS011;72228;51.208;10.468;2023-08-20T10:53:43;15.07;;;10.48;;
82560;SDS011;72228;51.208;10.468;2023-08-20T10:56:14;12.45;;;9.40;;
82560;SDS011;72228;51.208;10.468;2023-08-20T10:58:41;14.07;;;10.63;;
82560;SDS011;72228;51.208;10.468;2023-08-20T11:03:48;14.45;;;10.57;;
82560;SDS011;72228;51.208;10.468;2023-08-20T11:06:15;12.68;;;9.25;;
82560;SDS011;72228;51.208;10.468;2023-08-20T11:08:41;11.45;;;9.38;;
82560;SDS011;72228;51.208;10.468;2023-08-20T11:11:07;12.57;;;10.70;;
82560;SDS011;72228;51.208;10.468;2023-08-20T11:13:34;13.45;;;10.55;;
82560;SDS011;72228;51.208;10.468;2023-08-20T11:16:01;14.98;;;10.20;;
82560;SDS011;72228;51.208;10.468;2023-08-20T11:18:27;15.48;;;10.13;;
82560;SDS011;72228;51.208;10.468;2023-08-20T11:20:54;13.35;;;9.95;;
82560;SDS011;72228;51.208;10.468;2023-08-20T11:23:20;12.93;;;9.68;;
82560;SDS011;72228;51.208;10.468;2023-08-20T11:25:46;11.80;;;8.80;;
82560;SDS011;72228;51.208;10.468;2023-08-20T11:28:12;15.23;;;9.57;;
82560;SDS011;72228;51.208;10.468;2023-08-20T11:30:37;11.63;;;9.10;;
82560;SDS011;72228;51.208;10.468;2023-08-20T11:33:03;13.18;;;9.90;;
82560;SDS011;72228;51.208;10.468;2023-08-20T11:35:29;10.35;;;8.80;;
82560;SDS011;72228;51.208;10.468;2023-08-20T11:37:54;14.20;;;10.88;;
82560;SDS011;72228;51.208;10.468;2023-08-20T11:40:21;12.88;;;9.23;;
82560;SDS011;72228;51.208;10.468;2023-08-20T11:42:47;13.23;;;10.13;;
82560;SDS011;72228;51.208;10.468;2023-08-20T11:45:13;16.15;;;11.55;;
82560;SDS011;72228;51.208;10.468;2023-08-20T11:47:41;13.90;;;10.07;;
82560;SDS011;72228;51.208;10.468;2023-08-20T11:50:07;12.38;;;9.40;;
82560;SDS011;72228;51.208;10.468;2023-08-20T11:52:35;16.48;;;10.15;;
82560;SDS011;72228;51.208;10.468;2023-08-20T11:55:02;12.02;;;9.18;;
82560;SDS011;72228;51.208;10.468;2023-08-20T11:57:28;37.05;;;12.27;;
82560;SDS011;72228;51.208;10.468;2023-08-20T11:59:55;19.42;;;13.05;;
82560;SDS011;72228;51.208;10.468;2023-08-20T12:02:24;13.80;;;11.25;;
82560;SDS011;72228;51.208;10.468;2023-08-20T12:04:51;17.50;;;12.45;;
82560;SDS011;72228;51.208;10.468;2023-08-20T12:07:17;15.75;;;9.30;;
82560;SDS011;72228;51.208;10.468;2023-08-20T12:09:42;15.43;;;9.30;;
82560;SDS011;72228;51.208;10.468;2023-08-20T12:12:08;14.27;;;9.40;;
82560;SDS011;72228;51.208;10.468;2023-08-20T12:14:34;14.70;;;9.63;;
82560;SDS011;72228;51.208;10.468;2023-08-20T12:17:01;14.32;;;10.48;;
82560;SDS011;72228;51.208;10.468;2023-08-20T12:19:28;16.25;;;11.02;;
82560;SDS011;72228;51.208;10.468;2023-08-20T12:21:53;36.45;;;12.35;;
